Terminal Aerodrome Forecast
Issued by NWS Paducah, KY

Home | Current Version | Previous Version | Text Only | Print | Product List | Glossary On
Versions: 1 2 3 4 5 6 7 8 9 10 11 12 13 14 15 16 17 18 19 20 21 22 23 24
000
FTUS43 KPAH 231620 AAC
TAFPAH
TAF AMD
KPAH 231620Z 2316/2412 11010KT 6SM -RA BR BKN008
      TEMPO 2316/2318 2SM -RADZ BR SCT008 OVC013
     FM231800 11008KT 4SM -SHRA BR OVC012
     FM240400 34006KT 3SM BR VCSH OVC006=

USA.gov is the U.S. government's official web portal to all federal, state and local government web resources and services.